Terminal Aerodrome Forecast
Issued by NWS Grand Forks, ND

Home | Current Version | Previous Version | Graphics & Text | Print | Product List | Glossary On
Versions: 1 2 3 4 5 6 7 8 9 10 11 12 13 14 15 16 17 18 19
567
FTUS43 KFGF 222337
TAFGFK
TAF
KGFK 222337Z 2300/2324 17006KT P6SM SCT200
     FM230500 30004KT P6SM OVC040
     FM230600 34005KT 3SM -SN OVC035
      TEMPO 2306/2309 1SM -SN OVC015
     FM230900 34007KT 4SM -SN OVC045
     FM231200 33007KT P6SM OVC050
     FM232000 28007KT P6SM FEW250=

USA.gov is the U.S. government's official web portal to all federal, state and local government web resources and services.